Time;durP1;ratioP1;P1;durP2;ratioP2;P2;SDS_P1;SDS_P2;PMS_P1;PMS_P2;Temp;Humidity;BMP_temperature;BMP_pressure;BME280_temperature;BME280_humidity;BME280_pressure;Samples;Min_cycle;Max_cycle;Signal;HPM_P1;HPM_P2
2023/05/15 00:01:23;;;;;;;21.10;3.65;;;18.10;99.90;;;;;;5011000;28;20092;-69
2023/05/15 00:03:50;;;;;;;13.07;3.22;;;18.20;99.90;;;;;;5012118;28;20374;-68
2023/05/15 00:06:17;;;;;;;21.70;3.33;;;18.20;99.90;;;;;;5010375;28;20116;-70
2023/05/15 00:08:43;;;;;;;22.83;3.72;;;18.20;99.90;;;;;;5011602;28;20483;-71
2023/05/15 00:11:10;;;;;;;;;;;18.20;99.90;;;;;;5010643;28;20045;-70
2023/05/15 00:13:37;;;;;;;31.42;3.50;;;18.30;99.90;;;;;;5011778;28;20388;-69
2023/05/15 00:16:06;;;;;;;;;;;18.30;99.90;;;;;;5011989;28;20064;-70
2023/05/15 00:18:32;;;;;;;18.52;3.17;;;18.30;99.90;;;;;;5010084;28;19957;-70
2023/05/15 00:20:58;;;;;;;17.75;3.25;;;18.40;99.90;;;;;;5011838;28;20061;-69
2023/05/15 00:23:25;;;;;;;16.60;3.88;;;18.30;99.90;;;;;;5011439;28;20032;-72
2023/05/15 00:25:51;;;;;;;19.92;4.03;;;18.40;99.90;;;;;;5011415;28;20030;-71
2023/05/15 00:28:18;;;;;;;18.75;3.15;;;18.30;99.90;;;;;;5011389;28;20018;-70
2023/05/15 00:30:44;;;;;;;;;;;18.20;99.90;;;;;;5012104;28;20029;-69
2023/05/15 00:33:10;;;;;;;18.23;4.00;;;18.20;99.90;;;;;;5011351;28;19929;-69
2023/05/15 00:35:36;;;;;;;14.20;3.42;;;18.10;99.90;;;;;;5011280;28;20037;-69
2023/05/15 00:38:02;;;;;;;16.58;3.13;;;18.20;99.90;;;;;;5011611;28;20029;-70
2023/05/15 00:40:29;;;;;;;18.20;3.03;;;18.20;99.90;;;;;;5026774;28;20106;-70
2023/05/15 00:42:56;;;;;;;17.38;3.03;;;18.20;99.90;;;;;;5030572;28;20040;-71
2023/05/15 00:45:23;;;;;;;13.27;2.65;;;18.20;99.90;;;;;;5031148;28;20095;-69
2023/05/15 00:47:50;;;;;;;16.08;2.50;;;18.20;99.90;;;;;;5030869;28;20034;-70
2023/05/15 00:50:16;;;;;;;21.13;3.03;;;18.20;99.90;;;;;;5012294;28;20119;-69
2023/05/15 00:52:42;;;;;;;11.30;2.60;;;18.10;99.90;;;;;;5011317;28;20096;-69
2023/05/15 00:55:09;;;;;;;17.73;3.22;;;18.00;99.90;;;;;;5011497;28;20050;-71
2023/05/15 00:57:36;;;;;;;17.92;3.30;;;17.90;99.90;;;;;;5009625;28;20030;-70
2023/05/15 01:00:05;;;;;;;16.70;2.83;;;17.90;99.90;;;;;;5011461;28;20031;-69
2023/05/15 01:02:32;;;;;;;26.50;4.00;;;17.90;99.90;;;;;;5015470;28;20034;-69
2023/05/15 01:04:58;;;;;;;21.95;2.88;;;17.80;99.90;;;;;;5015081;28;20377;-70
2023/05/15 01:07:24;;;;;;;15.75;2.88;;;17.80;99.90;;;;;;5015167;28;20030;-70
2023/05/15 01:09:52;;;;;;;16.60;3.30;;;17.80;99.90;;;;;;5015049;28;20033;-70
2023/05/15 01:12:20;;;;;;;17.13;2.65;;;17.80;99.90;;;;;;5015281;28;20041;-70
2023/05/15 01:15:01;;;;;;;15.95;3.25;;;17.70;99.90;;;;;;5014702;28;20056;-71
2023/05/15 01:17:27;;;;;;;14.10;2.90;;;17.60;99.90;;;;;;5015284;28;20055;-70
2023/05/15 01:19:55;;;;;;;26.23;3.80;;;17.50;99.90;;;;;;5014852;28;20026;-71
2023/05/15 01:22:48;;;;;;;19.95;2.90;;;17.50;99.90;;;;;;5015044;28;20044;-70
2023/05/15 01:25:32;;;;;;;18.98;2.90;;;17.70;99.90;;;;;;5015078;28;20084;-70
2023/05/15 01:28:06;;;;;;;18.02;2.90;;;17.80;99.90;;;;;;5014791;28;20028;-69
2023/05/15 01:30:39;;;;;;;22.38;3.30;;;17.90;99.90;;;;;;5014908;28;20030;-69
2023/05/15 01:33:19;;;;;;;20.55;2.63;;;18.00;99.90;;;;;;5015049;28;20041;-70
2023/05/15 01:35:51;;;;;;;20.92;3.05;;;18.00;99.90;;;;;;5014767;28;20419;-70
2023/05/15 01:38:17;;;;;;;20.25;3.25;;;18.00;99.90;;;;;;5015025;28;20022;-71
2023/05/15 01:40:46;;;;;;;22.27;3.30;;;18.00;99.90;;;;;;5014395;28;20037;-70
2023/05/15 01:43:17;;;;;;;20.45;3.15;;;18.00;99.90;;;;;;5014046;28;20293;-71
2023/05/15 01:45:44;;;;;;;16.98;3.13;;;18.10;99.90;;;;;;5014332;28;20022;-70
2023/05/15 01:48:13;;;;;;;17.52;3.20;;;18.20;99.90;;;;;;5013856;28;20471;-68
2023/05/15 01:50:42;;;;;;;22.67;3.20;;;18.20;99.90;;;;;;5014348;28;20029;-71
2023/05/15 01:53:11;;;;;;;19.63;3.75;;;18.20;99.90;;;;;;5014410;28;20074;-71
2023/05/15 01:55:39;;;;;;;21.52;4.32;;;18.30;99.90;;;;;;5014243;28;20053;-71
2023/05/15 01:58:05;;;;;;;27.35;4.43;;;18.40;99.90;;;;;;5014127;28;20054;-69
2023/05/15 02:00:33;;;;;;;21.15;3.97;;;18.20;99.90;;;;;;5013945;28;20200;-70
2023/05/15 02:02:59;;;;;;;35.05;4.70;;;18.10;99.90;;;;;;5012476;28;20026;-71
2023/05/15 02:05:26;;;;;;;26.88;3.63;;;17.80;99.90;;;;;;5014418;28;20026;-70
2023/05/15 02:07:53;;;;;;;26.88;4.57;;;17.60;99.90;;;;;;5013951;28;20495;-70
2023/05/15 02:10:27;;;;;;;21.60;3.97;;;17.60;99.90;;;;;;5013795;28;20014;-70
2023/05/15 02:12:54;;;;;;;33.63;4.55;;;17.60;99.90;;;;;;5014042;28;20037;-70
2023/05/15 02:15:22;;;;;;;31.08;4.85;;;17.70;99.90;;;;;;5014212;28;20026;-69
2023/05/15 02:17:48;;;;;;;38.63;4.90;;;17.70;99.90;;;;;;5013381;28;20025;-68
2023/05/15 02:20:14;;;;;;;29.45;4.07;;;18.00;99.90;;;;;;5012937;28;20033;-68
2023/05/15 02:22:40;;;;;;;31.75;5.18;;;18.00;99.90;;;;;;5013799;28;20029;-71
2023/05/15 02:25:07;;;;;;;29.30;5.35;;;18.00;99.90;;;;;;5014025;28;20025;-71
2023/05/15 02:27:44;;;;;;;27.20;4.93;;;18.00;99.90;;;;;;5013604;28;20419;-70
2023/05/15 02:30:29;;;;;;;23.45;3.72;;;17.90;99.90;;;;;;5012040;28;20034;-70
2023/05/15 02:33:40;;;;;;;25.45;4.10;;;17.60;99.90;;;;;;5013840;28;20064;-69
2023/05/15 02:36:10;;;;;;;26.23;3.85;;;17.40;99.90;;;;;;5010603;28;20130;-69
2023/05/15 02:38:49;;;;;;;35.10;6.20;;;17.30;99.90;;;;;;5011959;28;20098;-69
2023/05/15 02:41:17;;;;;;;40.20;6.47;;;17.40;99.90;;;;;;5013562;28;20122;-70
2023/05/15 02:43:43;;;;;;;35.67;6.70;;;17.50;99.90;;;;;;5013092;28;20046;-69
2023/05/15 02:46:09;;;;;;;;;;;17.40;99.90;;;;;;5014024;28;20045;-70
2023/05/15 02:48:40;;;;;;;43.13;7.25;;;17.50;99.90;;;;;;5013322;28;20049;-70
2023/05/15 02:51:06;;;;;;;44.22;6.05;;;17.60;99.90;;;;;;5013462;28;20076;-70
2023/05/15 02:53:37;;;;;;;35.85;7.18;;;17.40;99.90;;;;;;5013277;28;20041;-69
2023/05/15 02:56:04;;;;;;;33.85;5.97;;;17.30;99.90;;;;;;5013284;28;20076;-70
2023/05/15 02:58:30;;;;;;;53.83;7.75;;;17.30;99.90;;;;;;5012741;28;20087;-69
2023/05/15 03:00:56;;;;;;;58.58;6.18;;;17.30;99.90;;;;;;5012854;28;20153;-69
2023/05/15 03:03:22;;;;;;;50.67;8.07;;;17.30;99.90;;;;;;5012885;28;20048;-70
2023/05/15 03:05:48;;;;;;;44.15;7.63;;;17.40;99.90;;;;;;5012870;28;20351;-70
2023/05/15 03:08:14;;;;;;;37.97;6.90;;;17.40;99.90;;;;;;5011525;28;20108;-71
2023/05/15 03:10:40;;;;;;;56.10;8.80;;;17.40;99.90;;;;;;5012998;28;20593;-69
2023/05/15 03:13:06;;;;;;;41.85;6.40;;;17.30;99.90;;;;;;5013005;28;20041;-69
2023/05/15 03:15:32;;;;;;;46.90;7.80;;;17.40;99.90;;;;;;5012894;28;20030;-70
2023/05/15 03:17:58;;;;;;;51.33;7.93;;;17.40;99.90;;;;;;5012913;28;20269;-69
2023/05/15 03:20:24;;;;;;;45.05;6.65;;;17.30;99.90;;;;;;4991548;28;20116;-70
2023/05/15 03:23:08;;;;;;;45.33;7.85;;;17.20;99.90;;;;;;4992604;28;20100;-66
2023/05/15 03:25:34;;;;;;;38.53;9.35;;;17.10;99.90;;;;;;4993102;28;20029;-69
2023/05/15 03:28:00;;;;;;;47.85;7.75;;;17.10;99.90;;;;;;4993450;28;20034;-69
2023/05/15 03:30:26;;;;;;;39.53;7.43;;;17.10;99.90;;;;;;4997131;28;20030;-68
2023/05/15 03:32:53;;;;;;;56.67;8.73;;;17.10;99.90;;;;;;5011790;28;20364;-70
2023/05/15 03:35:19;;;;;;;44.05;8.05;;;17.10;99.90;;;;;;5010373;28;20858;-67
2023/05/15 03:37:45;;;;;;;46.50;8.23;;;17.20;99.90;;;;;;5011013;28;20125;-71
2023/05/15 03:40:12;;;;;;;43.28;6.93;;;17.20;99.90;;;;;;5008616;28;20052;-67
2023/05/15 03:42:38;;;;;;;42.15;6.63;;;17.20;99.90;;;;;;5012128;28;20116;-69
2023/05/15 03:45:05;;;;;;;32.88;6.40;;;17.20;99.90;;;;;;5011542;28;20030;-70
2023/05/15 03:47:31;;;;;;;38.28;5.90;;;17.20;99.90;;;;;;5012912;28;20096;-70
2023/05/15 03:49:57;;;;;;;38.47;6.32;;;17.20;99.90;;;;;;5012184;28;20060;-69
2023/05/15 03:52:23;;;;;;;46.77;7.83;;;17.20;99.90;;;;;;5012848;28;20060;-70
2023/05/15 03:54:49;;;;;;;28.27;5.78;;;17.20;99.90;;;;;;5012834;28;20265;-70
2023/05/15 03:57:15;;;;;;;30.63;6.38;;;17.20;99.90;;;;;;5012819;28;20050;-69
2023/05/15 03:59:42;;;;;;;38.38;7.50;;;17.20;99.90;;;;;;5012669;28;20105;-70
2023/05/15 04:02:08;;;;;;;40.28;7.63;;;17.10;99.90;;;;;;5012486;28;20030;-70
2023/05/15 04:04:34;;;;;;;30.70;5.40;;;17.10;99.90;;;;;;5012702;28;20108;-70
2023/05/15 04:07:01;;;;;;;29.25;5.65;;;17.10;99.90;;;;;;5012611;28;20265;-71
2023/05/15 04:09:27;;;;;;;28.58;6.10;;;17.10;99.90;;;;;;5012544;28;20172;-68
2023/05/15 04:11:53;;;;;;;31.90;4.97;;;17.10;99.90;;;;;;5012195;28;20105;-72
2023/05/15 04:14:19;;;;;;;21.17;4.70;;;17.10;99.90;;;;;;5010146;28;20713;-71
2023/05/15 04:16:45;;;;;;;37.97;5.53;;;17.10;99.90;;;;;;5010905;28;20037;-72
2023/05/15 04:19:11;;;;;;;28.67;5.37;;;17.10;99.90;;;;;;5013358;28;20026;-71
2023/05/15 04:21:37;;;;;;;39.40;5.78;;;17.10;99.90;;;;;;5013201;28;20092;-72
2023/05/15 04:24:04;;;;;;;35.20;5.40;;;17.10;99.90;;;;;;5013597;28;20021;-71
2023/05/15 04:26:30;;;;;;;31.48;5.55;;;17.10;99.90;;;;;;5013509;28;20196;-71
2023/05/15 04:28:56;;;;;;;27.90;5.13;;;17.10;99.90;;;;;;5011781;28;20030;-71
2023/05/15 04:31:23;;;;;;;22.80;4.90;;;17.20;99.90;;;;;;5013204;28;20032;-72
2023/05/15 04:33:49;;;;;;;;;;;17.20;99.90;;;;;;5013543;28;20340;-71
2023/05/15 04:36:15;;;;;;;29.83;5.00;;;17.20;99.90;;;;;;5011661;28;19955;-72
2023/05/15 04:38:41;;;;;;;35.65;6.63;;;17.10;99.90;;;;;;5013341;28;20026;-71
2023/05/15 04:41:07;;;;;;;35.30;6.57;;;17.20;99.90;;;;;;5011910;28;20040;-71
2023/05/15 04:43:33;;;;;;;30.03;5.13;;;17.20;99.90;;;;;;5013056;28;20136;-70
2023/05/15 04:45:59;;;;;;;28.75;5.25;;;17.30;99.90;;;;;;5013087;28;20315;-69
2023/05/15 04:48:25;;;;;;;30.80;6.20;;;17.30;99.90;;;;;;5012915;28;20433;-71
2023/05/15 04:50:51;;;;;;;42.85;6.50;;;17.20;99.90;;;;;;5012908;28;20429;-71
2023/05/15 04:53:17;;;;;;;26.60;5.40;;;17.20;99.90;;;;;;5012522;28;20497;-72
2023/05/15 04:55:43;;;;;;;33.83;6.40;;;17.20;99.90;;;;;;5011399;28;20030;-72
2023/05/15 04:58:16;;;;;;;40.95;7.07;;;17.20;99.90;;;;;;5011157;28;20439;-72
2023/05/15 05:00:42;;;;;;;42.10;6.55;;;17.20;99.90;;;;;;5013245;28;20081;-71
2023/05/15 05:03:08;;;;;;;39.22;6.82;;;17.30;99.90;;;;;;5013579;28;20026;-71
2023/05/15 05:05:34;;;;;;;38.08;6.65;;;17.30;99.90;;;;;;5012981;28;20018;-73
2023/05/15 05:08:00;;;;;;;34.33;6.07;;;17.30;99.90;;;;;;5011001;28;20064;-72
2023/05/15 05:10:26;;;;;;;35.90;6.25;;;17.20;99.90;;;;;;5012465;28;20022;-71
2023/05/15 05:12:53;;;;;;;33.95;5.72;;;17.20;99.90;;;;;;5011613;28;20112;-72
2023/05/15 05:15:19;;;;;;;34.80;6.93;;;17.20;99.90;;;;;;5012096;28;20129;-72
2023/05/15 05:17:45;;;;;;;32.05;5.60;;;17.20;99.90;;;;;;5012195;28;20025;-71
2023/05/15 05:20:12;;;;;;;31.80;6.32;;;17.20;99.90;;;;;;5011474;28;20096;-70
2023/05/15 05:22:39;;;;;;;35.05;5.40;;;17.20;99.90;;;;;;5011590;28;20052;-72
2023/05/15 05:25:05;;;;;;;;;;;17.20;99.90;;;;;;5012628;28;20107;-71
2023/05/15 05:27:31;;;;;;;31.23;4.93;;;17.20;99.90;;;;;;5010548;28;20004;-69
2023/05/15 05:29:57;;;;;;;33.50;5.55;;;17.10;99.90;;;;;;5011663;28;20026;-72
2023/05/15 05:32:23;;;;;;;28.77;5.43;;;17.10;99.90;;;;;;5011782;28;20018;-71
2023/05/15 05:34:49;;;;;;;23.20;4.72;;;17.10;99.90;;;;;;5012304;28;20045;-68
2023/05/15 05:37:15;;;;;;;23.80;3.78;;;17.20;99.90;;;;;;5012375;28;20489;-68
2023/05/15 05:39:41;;;;;;;22.15;4.18;;;17.10;99.90;;;;;;5026975;28;20084;-71
2023/05/15 05:42:07;;;;;;;18.53;4.33;;;17.10;99.90;;;;;;5025362;28;20060;-69
2023/05/15 05:44:33;;;;;;;18.10;4.20;;;16.90;99.90;;;;;;5031040;28;20380;-70
2023/05/15 05:46:59;;;;;;;24.77;3.88;;;16.90;99.90;;;;;;5033366;28;20280;-69
2023/05/15 05:49:25;;;;;;;21.75;2.92;;;16.90;99.90;;;;;;5022086;28;20112;-69
2023/05/15 05:51:52;;;;;;;20.27;2.97;;;16.80;99.90;;;;;;5015625;28;20068;-70
2023/05/15 05:54:18;;;;;;;11.05;2.40;;;16.60;99.90;;;;;;5013636;28;20345;-71
2023/05/15 05:56:44;;;;;;;20.48;3.22;;;16.60;99.90;;;;;;5015082;28;20080;-66
2023/05/15 05:59:10;;;;;;;19.48;4.03;;;16.60;99.90;;;;;;5013637;28;20390;-68
2023/05/15 06:01:36;;;;;;;15.80;2.92;;;16.50;99.90;;;;;;5014804;28;20033;-69
2023/05/15 06:04:03;;;;;;;16.17;2.15;;;16.50;99.90;;;;;;5015023;28;20022;-69
2023/05/15 06:06:29;;;;;;;16.58;2.90;;;16.40;99.90;;;;;;5015294;28;20037;-69
2023/05/15 06:08:55;;;;;;;12.25;2.90;;;16.30;99.90;;;;;;5015369;28;20355;-69
2023/05/15 06:11:22;;;;;;;14.10;2.92;;;16.40;99.90;;;;;;5015002;28;20064;-70
2023/05/15 06:13:48;;;;;;;15.77;2.50;;;16.20;99.90;;;;;;5014777;28;20052;-69
2023/05/15 06:16:14;;;;;;;13.40;2.58;;;16.30;99.90;;;;;;5015296;28;20033;-70
2023/05/15 06:18:40;;;;;;;14.80;2.40;;;16.30;99.90;;;;;;5015282;28;20065;-70
2023/05/15 06:21:06;;;;;;;17.23;2.40;;;16.30;99.90;;;;;;5015529;28;20481;-70
2023/05/15 06:23:32;;;;;;;12.90;3.23;;;16.30;99.90;;;;;;5015338;28;20030;-70
2023/05/15 06:25:58;;;;;;;18.47;3.10;;;16.40;99.90;;;;;;5015769;28;20256;-69
2023/05/15 06:28:24;;;;;;;9.67;2.37;;;16.50;99.90;;;;;;5015084;28;20367;-70
2023/05/15 07:14:06;;;;;;;12.93;1.83;;;16.10;99.90;;;;;;5103986;27;20397;-74
2023/05/15 07:16:32;;;;;;;11.02;2.05;;;16.10;99.90;;;;;;5105060;28;20451;-76
2023/05/15 07:18:58;;;;;;;10.23;1.83;;;16.10;99.90;;;;;;5088146;28;20068;-78
2023/05/15 07:21:24;;;;;;;11.27;2.30;;;16.10;99.90;;;;;;5089622;28;20349;-78
2023/05/15 07:23:50;;;;;;;10.57;1.83;;;16.10;99.90;;;;;;5090154;28;20028;-78
2023/05/15 07:26:16;;;;;;;11.23;2.38;;;16.20;99.90;;;;;;5089485;28;20103;-79
2023/05/15 07:28:42;;;;;;;10.50;2.10;;;16.20;99.90;;;;;;5089340;28;20025;-76
2023/05/15 07:31:08;;;;;;;11.63;2.13;;;16.30;99.90;;;;;;5089458;28;20020;-77
2023/05/15 07:33:34;;;;;;;11.98;2.53;;;16.20;99.90;;;;;;5092175;28;20049;-77
2023/05/15 07:36:00;;;;;;;12.88;2.03;;;16.20;99.90;;;;;;5089888;28;20492;-79
2023/05/15 07:38:26;;;;;;;10.63;2.17;;;16.30;99.90;;;;;;5089853;28;20056;-78
2023/05/15 07:40:52;;;;;;;8.88;2.05;;;16.30;99.90;;;;;;5087742;28;20027;-77
2023/05/15 07:43:19;;;;;;;9.07;2.20;;;16.30;99.90;;;;;;5087651;28;20025;-79
2023/05/15 07:45:45;;;;;;;11.02;2.10;;;16.40;99.90;;;;;;5089273;28;20323;-77
2023/05/15 07:48:19;;;;;;;13.13;2.33;;;16.40;99.90;;;;;;5089134;28;20052;-79
2023/05/15 07:50:46;;;;;;;14.55;2.58;;;16.30;99.90;;;;;;5088638;28;20031;-78
2023/05/15 07:53:18;;;;;;;14.63;2.42;;;16.30;99.90;;;;;;5088381;28;20036;-78
2023/05/15 07:55:45;;;;;;;10.98;2.20;;;16.30;99.90;;;;;;5086800;28;20024;-77
2023/05/15 07:58:12;;;;;;;9.80;2.08;;;16.30;99.90;;;;;;5088237;28;20024;-76
2023/05/15 08:00:38;;;;;;;10.48;2.10;;;16.40;99.90;;;;;;5088255;28;20047;-76
2023/05/15 08:03:05;;;;;;;10.82;2.42;;;16.40;99.90;;;;;;5088287;28;20257;-76
2023/05/15 08:05:31;;;;;;;12.50;1.90;;;16.40;99.90;;;;;;5088221;28;20114;-76
2023/05/15 08:07:57;;;;;;;11.45;2.17;;;16.40;99.90;;;;;;5088334;28;20024;-78
2023/05/15 08:10:23;;;;;;;10.68;2.28;;;16.40;99.90;;;;;;5088324;28;20031;-76
2023/05/15 08:12:49;;;;;;;10.20;1.88;;;16.40;99.90;;;;;;5087797;28;20056;-77
2023/05/15 08:15:16;;;;;;;7.40;1.73;;;16.40;99.90;;;;;;5088075;28;20028;-78
2023/05/15 08:17:42;;;;;;;10.20;1.95;;;16.40;99.90;;;;;;5087350;28;20020;-77
2023/05/15 08:20:08;;;;;;;9.55;1.95;;;16.40;99.90;;;;;;5088773;28;20421;-77
2023/05/15 08:22:35;;;;;;;3.20;1.20;;;16.40;99.90;;;;;;5086462;28;20078;-78
2023/05/15 08:25:03;;;;;;;4.20;1.40;;;16.40;99.90;;;;;;5075610;28;20431;-78
2023/05/15 08:27:29;;;;;;;10.00;1.70;;;16.40;99.90;;;;;;5073730;28;20089;-75
2023/05/15 08:29:55;;;;;;;8.70;2.03;;;16.40;99.90;;;;;;5074310;28;20036;-77
2023/05/15 08:32:22;;;;;;;6.13;1.52;;;16.40;99.90;;;;;;5074707;28;20040;-77
2023/05/15 08:34:48;;;;;;;10.20;1.80;;;16.40;99.90;;;;;;5075320;28;20016;-78
2023/05/15 08:37:14;;;;;;;6.23;1.53;;;16.40;99.90;;;;;;5075021;28;20135;-76
2023/05/15 08:39:40;;;;;;;9.10;1.98;;;16.50;99.90;;;;;;5075279;28;20263;-75
2023/05/15 08:42:08;;;;;;;9.57;2.00;;;16.40;99.90;;;;;;5074759;28;20021;-77
2023/05/15 08:44:35;;;;;;;10.38;2.03;;;16.40;99.90;;;;;;5074372;28;20768;-75
2023/05/15 08:47:02;;;;;;;9.93;2.08;;;16.40;99.90;;;;;;5074855;28;20142;-76
2023/05/15 08:49:35;;;;;;;;;;;16.50;99.90;;;;;;5074463;28;20025;-76
2023/05/15 08:52:01;;;;;;;8.85;1.85;;;16.60;99.90;;;;;;5072479;28;19920;-75
2023/05/15 08:54:27;;;;;;;;;;;16.60;99.90;;;;;;5074458;28;20048;-76
2023/05/15 08:56:54;;;;;;;13.27;2.55;;;16.70;99.90;;;;;;5075166;28;20237;-75
2023/05/15 08:59:20;;;;;;;13.32;2.25;;;16.90;99.90;;;;;;5073867;28;20017;-76
2023/05/15 09:01:46;;;;;;;;;;;17.10;99.90;;;;;;5074182;28;20071;-75
2023/05/15 09:04:13;;;;;;;17.45;2.70;;;17.20;99.90;;;;;;5072277;28;20416;-75
2023/05/15 09:06:40;;;;;;;18.98;3.15;;;17.30;99.90;;;;;;5073456;28;20016;-74
2023/05/15 09:09:12;;;;;;;13.20;2.42;;;17.30;99.90;;;;;;5073440;28;20056;-76
2023/05/15 09:11:43;;;;;;;11.43;2.25;;;17.30;99.90;;;;;;5073402;28;20044;-74
2023/05/15 09:14:09;;;;;;;10.85;2.10;;;17.20;99.90;;;;;;5073183;28;20464;-76
2023/05/15 09:16:37;;;;;;;9.65;1.85;;;17.20;99.90;;;;;;5073413;28;20029;-75
2023/05/15 09:19:04;;;;;;;;;;;17.20;99.90;;;;;;5072432;28;20028;-75
2023/05/15 09:21:30;;;;;;;14.02;2.85;;;17.20;99.90;;;;;;5073448;28;20368;-77
2023/05/15 09:24:23;;;;;;;11.65;2.70;;;17.20;99.90;;;;;;5071788;28;20048;-77
2023/05/15 09:27:09;;;;;;;14.88;2.85;;;17.20;99.90;;;;;;5073568;28;20461;-78
2023/05/15 09:29:37;;;;;;;17.50;3.00;;;17.10;99.90;;;;;;5073547;28;20040;-79
2023/05/15 09:32:07;;;;;;;24.35;3.35;;;17.20;99.90;;;;;;5073281;28;20033;-76
2023/05/15 09:34:39;;;;;;;16.70;2.60;;;17.30;99.90;;;;;;5073381;28;20457;-77
2023/05/15 09:37:07;;;;;;;16.20;3.88;;;17.10;99.90;;;;;;5072063;28;20028;-77
2023/05/15 09:39:43;;;;;;;17.65;2.90;;;17.10;99.90;;;;;;5073383;28;20040;-75
2023/05/15 09:42:11;;;;;;;18.85;3.40;;;17.00;99.90;;;;;;5073236;28;20047;-76
2023/05/15 09:44:42;;;;;;;21.95;3.83;;;17.00;99.90;;;;;;5072514;28;20036;-76
2023/05/15 09:47:09;;;;;;;16.27;2.47;;;17.00;99.90;;;;;;5072855;28;20029;-75
2023/05/15 09:49:35;;;;;;;19.83;3.38;;;17.10;99.90;;;;;;5072715;28;20033;-76
2023/05/15 09:52:02;;;;;;;20.00;3.13;;;17.00;99.90;;;;;;5072827;28;20209;-75
2023/05/15 09:54:29;;;;;;;17.95;3.50;;;16.80;99.90;;;;;;5072671;28;20162;-77
2023/05/15 09:56:56;;;;;;;19.30;3.38;;;16.90;99.90;;;;;;5072119;28;20044;-75
2023/05/15 09:59:23;;;;;;;22.02;3.75;;;16.90;99.90;;;;;;5071976;28;20492;-74
2023/05/15 10:01:51;;;;;;;18.17;3.20;;;16.90;99.90;;;;;;5072219;28;20023;-76
2023/05/15 10:04:17;;;;;;;19.33;3.67;;;16.90;99.90;;;;;;5072219;28;20028;-74
2023/05/15 10:06:52;;;;;;;19.45;3.20;;;16.90;99.90;;;;;;5072343;28;20028;-73
2023/05/15 10:09:18;;;;;;;23.10;4.03;;;17.10;99.90;;;;;;5072216;28;20098;-76
2023/05/15 10:11:50;;;;;;;26.63;4.05;;;17.00;99.90;;;;;;5071643;28;20028;-76
2023/05/15 10:14:17;;;;;;;24.00;4.35;;;17.00;99.90;;;;;;5071929;28;20032;-74
2023/05/15 10:16:44;;;;;;;20.50;3.47;;;17.00;99.90;;;;;;5071652;28;20025;-72
2023/05/15 10:19:11;;;;;;;33.88;5.00;;;17.00;99.90;;;;;;5072225;28;20028;-75
2023/05/15 10:21:40;;;;;;;18.92;3.15;;;16.90;99.90;;;;;;5072313;28;20547;-74
2023/05/15 10:24:07;;;;;;;22.15;3.72;;;16.90;99.90;;;;;;5072268;28;20099;-75
2023/05/15 10:26:38;;;;;;;14.18;2.75;;;16.90;99.90;;;;;;5072620;28;20115;-75
2023/05/15 10:29:06;;;;;;;16.48;3.42;;;16.90;99.90;;;;;;5072620;28;20434;-76
2023/05/15 10:31:34;;;;;;;22.60;3.40;;;16.90;99.90;;;;;;5072665;28;20025;-76
2023/05/15 10:34:04;;;;;;;21.88;2.97;;;16.90;99.90;;;;;;5072687;28;20071;-75
2023/05/15 10:36:35;;;;;;;20.38;2.75;;;16.80;99.90;;;;;;5072157;28;20035;-75
2023/05/15 10:39:06;;;;;;;15.82;2.80;;;16.80;99.90;;;;;;5072443;28;20032;-76
2023/05/15 10:41:35;;;;;;;17.92;3.13;;;16.80;99.90;;;;;;5072509;28;20028;-76
2023/05/15 10:44:01;;;;;;;17.60;2.97;;;16.80;99.90;;;;;;5072061;28;20121;-73
2023/05/15 10:46:30;;;;;;;19.50;2.92;;;16.80;99.90;;;;;;5072104;28;20029;-76
2023/05/15 10:48:58;;;;;;;25.90;4.35;;;16.80;99.90;;;;;;5071376;28;20153;-77
2023/05/15 10:51:29;;;;;;;30.23;4.85;;;16.90;99.90;;;;;;5071087;28;20089;-75
2023/05/15 10:53:56;;;;;;;24.88;4.00;;;17.00;99.90;;;;;;5071560;28;20041;-76
2023/05/15 10:56:25;;;;;;;;;;;17.00;99.90;;;;;;5071851;28;20450;-75
2023/05/15 10:58:53;;;;;;;23.30;3.67;;;17.10;99.90;;;;;;5071290;28;20420;-76
2023/05/15 11:01:33;;;;;;;23.80;4.05;;;17.10;99.90;;;;;;5071536;28;20028;-75
2023/05/15 11:04:09;;;;;;;26.02;4.20;;;17.10;99.90;;;;;;5071665;28;20383;-77
2023/05/15 11:06:38;;;;;;;20.15;4.38;;;17.00;99.90;;;;;;5069455;28;20025;-76
2023/05/15 11:09:23;;;;;;;25.50;4.40;;;17.10;99.90;;;;;;5071620;28;20117;-75
2023/05/15 11:11:54;;;;;;;27.95;4.53;;;17.20;99.90;;;;;;5070738;28;20536;-75
2023/05/15 11:14:24;;;;;;;21.13;4.15;;;17.20;99.90;;;;;;5070744;28;20036;-76
2023/05/15 11:16:53;;;;;;;37.05;4.93;;;17.30;99.90;;;;;;5071325;28;20029;-76
2023/05/15 11:19:31;;;;;;;22.60;3.88;;;17.30;99.90;;;;;;5072074;28;20029;-75
2023/05/15 11:22:16;;;;;;;22.77;3.13;;;17.40;99.90;;;;;;5072394;28;20173;-75
2023/05/15 11:24:51;;;;;;;22.83;3.45;;;17.40;99.90;;;;;;5072048;28;20405;-75
2023/05/15 11:27:20;;;;;;;23.63;4.43;;;17.50;99.90;;;;;;5071760;28;20036;-72
2023/05/15 11:30:25;;;;;;;32.42;5.20;;;17.40;99.90;;;;;;5072242;28;20027;-76
2023/05/15 11:32:55;;;;;;;30.83;4.85;;;17.50;99.90;;;;;;5071789;28;20031;-75
2023/05/15 11:35:25;;;;;;;28.58;5.10;;;17.60;99.90;;;;;;5071686;28;20107;-76
2023/05/15 11:37:56;;;;;;;31.95;5.70;;;17.70;99.90;;;;;;5071841;28;20102;-75
2023/05/15 11:40:43;;;;;;;35.88;5.47;;;17.70;99.90;;;;;;5072006;28;20032;-75
2023/05/15 11:43:20;;;;;;;28.20;5.03;;;17.80;99.90;;;;;;5071654;28;20105;-75
2023/05/15 11:45:50;;;;;;;38.20;6.30;;;17.90;99.90;;;;;;5070034;28;20021;-76
2023/05/15 11:48:17;;;;;;;35.97;5.45;;;18.00;99.90;;;;;;5073343;28;20036;-75
2023/05/15 11:50:44;;;;;;;36.42;5.22;;;18.00;99.90;;;;;;5071453;28;20112;-76
2023/05/15 11:53:11;;;;;;;37.60;5.30;;;18.00;99.90;;;;;;5070944;28;20067;-76
2023/05/15 11:55:39;;;;;;;44.08;6.35;;;18.10;99.90;;;;;;5070252;28;20024;-76
2023/05/15 11:58:10;;;;;;;37.78;6.78;;;18.10;99.90;;;;;;5071927;28;20024;-76
2023/05/15 12:00:36;;;;;;;36.75;5.95;;;18.20;99.90;;;;;;5073528;28;20024;-77
2023/05/15 12:03:02;;;;;;;51.35;14.02;;;18.30;99.90;;;;;;5075605;28;20499;-76
2023/05/15 12:05:29;;;;;;;39.63;7.30;;;18.30;99.90;;;;;;5075242;28;20024;-76
2023/05/15 12:07:56;;;;;;;35.13;6.53;;;18.30;99.90;;;;;;5074952;28;20112;-76
2023/05/15 12:10:22;;;;;;;;;;;18.30;99.90;;;;;;5076047;28;20105;-77
2023/05/15 12:12:49;;;;;;;35.80;5.93;;;18.30;99.90;;;;;;5074912;28;19982;-77
2023/05/15 12:15:16;;;;;;;30.38;6.07;;;18.20;99.90;;;;;;5073883;28;20055;-77
2023/05/15 12:17:44;;;;;;;24.00;5.45;;;18.30;99.90;;;;;;5075636;28;20039;-75
2023/05/15 12:20:15;;;;;;;33.83;5.18;;;18.30;99.90;;;;;;5075474;28;20020;-77
2023/05/15 12:22:41;;;;;;;31.35;5.60;;;18.30;99.90;;;;;;5075805;28;20059;-77
2023/05/15 12:25:10;;;;;;;28.05;4.55;;;18.20;99.90;;;;;;5075807;28;20021;-76
2023/05/15 12:27:38;;;;;;;28.30;4.57;;;18.30;99.90;;;;;;5074127;28;20480;-77
2023/05/15 12:30:05;;;;;;;29.70;5.18;;;18.20;99.90;;;;;;5073856;28;20036;-76
2023/05/15 12:32:34;;;;;;;34.00;6.00;;;18.20;99.90;;;;;;5075260;28;20090;-78
2023/05/15 12:35:02;;;;;;;36.30;5.68;;;18.20;99.90;;;;;;5075601;28;20090;-77
2023/05/15 12:37:32;;;;;;;38.92;6.00;;;18.10;99.90;;;;;;5075513;28;20043;-75
2023/05/15 12:40:09;;;;;;;32.85;6.18;;;18.10;99.90;;;;;;5075701;28;20457;-76
2023/05/15 12:42:42;;;;;;;31.83;5.88;;;18.10;99.90;;;;;;5073781;28;20455;-76
2023/05/15 12:45:16;;;;;;;28.50;5.00;;;18.10;99.90;;;;;;5073628;28;20028;-76
2023/05/15 12:47:44;;;;;;;25.95;5.57;;;18.20;99.90;;;;;;5075169;28;20024;-78
2023/05/15 12:50:15;;;;;;;35.95;5.25;;;18.00;99.90;;;;;;5074675;28;20107;-76
2023/05/15 12:52:52;;;;;;;32.95;4.55;;;18.00;99.90;;;;;;5074462;28;20037;-78
2023/05/15 12:55:26;;;;;;;33.25;5.25;;;18.00;99.90;;;;;;5074921;28;20035;-78
2023/05/15 12:58:07;;;;;;;29.30;5.13;;;18.00;99.90;;;;;;5074745;28;20070;-77
2023/05/15 13:00:35;;;;;;;29.83;5.47;;;17.90;99.90;;;;;;5074271;28;20039;-75
2023/05/15 13:03:02;;;;;;;33.08;5.90;;;17.90;99.90;;;;;;5074417;28;20028;-77
2023/05/15 13:05:32;;;;;;;28.92;5.05;;;18.00;99.90;;;;;;5074469;28;20070;-77
2023/05/15 13:08:08;;;;;;;35.42;5.70;;;17.90;99.90;;;;;;5074522;28;20074;-76
2023/05/15 13:10:36;;;;;;;26.67;4.55;;;18.00;99.90;;;;;;5074496;28;20021;-76
2023/05/15 13:13:12;;;;;;;32.92;4.75;;;18.00;99.90;;;;;;5074240;28;20496;-77
2023/05/15 13:15:43;;;;;;;28.50;4.80;;;18.00;99.90;;;;;;5073163;28;20032;-75
2023/05/15 13:18:12;;;;;;;31.70;5.45;;;18.10;99.90;;;;;;5073284;28;20266;-75
2023/05/15 13:20:47;;;;;;;32.97;5.13;;;18.30;99.90;;;;;;5072741;28;20052;-78
2023/05/15 13:23:16;;;;;;;33.72;5.82;;;18.20;99.90;;;;;;5073177;28;20024;-75
2023/05/15 13:25:43;;;;;;;30.15;5.03;;;18.20;99.90;;;;;;5073049;28;20479;-75
2023/05/15 13:28:10;;;;;;;34.65;5.35;;;18.20;99.90;;;;;;5073109;28;20020;-77
2023/05/15 13:30:40;;;;;;;37.13;5.13;;;18.20;99.90;;;;;;5072708;28;20024;-75